sensor_id;sensor_type;location;lat;lon;timestamp;P1;durP1;ratioP1;P2;durP2;ratioP2
12871;SDS011;6504;53.766;9.626;2022-12-18T00:00:01;18.60;;;15.93;;
12871;SDS011;6504;53.766;9.626;2022-12-18T00:02:32;19.60;;;15.93;;
12871;SDS011;6504;53.766;9.626;2022-12-18T00:05:00;17.70;;;14.87;;
12871;SDS011;6504;53.766;9.626;2022-12-18T00:07:28;17.77;;;15.83;;
12871;SDS011;6504;53.766;9.626;2022-12-18T00:09:56;17.43;;;15.03;;
12871;SDS011;6504;53.766;9.626;2022-12-18T00:12:24;17.77;;;15.67;;
12871;SDS011;6504;53.766;9.626;2022-12-18T00:14:55;18.53;;;15.13;;
12871;SDS011;6504;53.766;9.626;2022-12-18T00:17:23;18.00;;;14.93;;
12871;SDS011;6504;53.766;9.626;2022-12-18T00:19:52;18.50;;;14.60;;
12871;SDS011;6504;53.766;9.626;2022-12-18T00:22:20;18.17;;;14.67;;
12871;SDS011;6504;53.766;9.626;2022-12-18T00:24:49;18.20;;;14.47;;
12871;SDS011;6504;53.766;9.626;2022-12-18T00:27:17;17.20;;;14.93;;
12871;SDS011;6504;53.766;9.626;2022-12-18T00:29:45;17.63;;;13.80;;
12871;SDS011;6504;53.766;9.626;2022-12-18T00:32:13;17.17;;;14.47;;
12871;SDS011;6504;53.766;9.626;2022-12-18T00:34:41;18.40;;;15.07;;
12871;SDS011;6504;53.766;9.626;2022-12-18T00:37:10;16.07;;;14.30;;
12871;SDS011;6504;53.766;9.626;2022-12-18T00:39:45;18.47;;;13.90;;
12871;SDS011;6504;53.766;9.626;2022-12-18T00:42:16;16.00;;;13.37;;
12871;SDS011;6504;53.766;9.626;2022-12-18T00:45:16;17.13;;;13.03;;
12871;SDS011;6504;53.766;9.626;2022-12-18T00:47:44;15.20;;;13.07;;
12871;SDS011;6504;53.766;9.626;2022-12-18T00:50:12;17.90;;;14.10;;
12871;SDS011;6504;53.766;9.626;2022-12-18T00:52:42;15.57;;;12.77;;
12871;SDS011;6504;53.766;9.626;2022-12-18T00:55:10;16.23;;;13.60;;
12871;SDS011;6504;53.766;9.626;2022-12-18T00:57:39;18.63;;;13.97;;
12871;SDS011;6504;53.766;9.626;2022-12-18T01:00:08;16.87;;;13.60;;
12871;SDS011;6504;53.766;9.626;2022-12-18T01:02:38;16.37;;;14.07;;
12871;SDS011;6504;53.766;9.626;2022-12-18T01:05:07;17.10;;;13.07;;
12871;SDS011;6504;53.766;9.626;2022-12-18T01:07:36;14.67;;;12.07;;
12871;SDS011;6504;53.766;9.626;2022-12-18T01:10:06;16.03;;;13.30;;
12871;SDS011;6504;53.766;9.626;2022-12-18T01:12:35;15.23;;;12.53;;
12871;SDS011;6504;53.766;9.626;2022-12-18T01:15:03;14.73;;;12.20;;
12871;SDS011;6504;53.766;9.626;2022-12-18T01:17:33;14.20;;;12.70;;
12871;SDS011;6504;53.766;9.626;2022-12-18T01:20:01;18.40;;;13.50;;
12871;SDS011;6504;53.766;9.626;2022-12-18T01:22:30;15.43;;;12.03;;
12871;SDS011;6504;53.766;9.626;2022-12-18T01:24:58;18.10;;;12.83;;
12871;SDS011;6504;53.766;9.626;2022-12-18T01:27:27;15.53;;;11.70;;
12871;SDS011;6504;53.766;9.626;2022-12-18T01:29:55;16.70;;;12.80;;
12871;SDS011;6504;53.766;9.626;2022-12-18T01:32:23;14.67;;;13.07;;
12871;SDS011;6504;53.766;9.626;2022-12-18T01:34:51;13.63;;;12.27;;
12871;SDS011;6504;53.766;9.626;2022-12-18T01:37:19;14.00;;;11.73;;
12871;SDS011;6504;53.766;9.626;2022-12-18T01:39:47;13.77;;;11.97;;
12871;SDS011;6504;53.766;9.626;2022-12-18T01:42:16;15.63;;;12.00;;
12871;SDS011;6504;53.766;9.626;2022-12-18T01:44:56;14.23;;;11.50;;
12871;SDS011;6504;53.766;9.626;2022-12-18T01:47:29;14.07;;;12.27;;
12871;SDS011;6504;53.766;9.626;2022-12-18T01:50:02;14.27;;;12.77;;
12871;SDS011;6504;53.766;9.626;2022-12-18T01:52:35;12.53;;;11.20;;
12871;SDS011;6504;53.766;9.626;2022-12-18T01:55:06;13.57;;;11.80;;
12871;SDS011;6504;53.766;9.626;2022-12-18T01:57:36;13.83;;;11.17;;
12871;SDS011;6504;53.766;9.626;2022-12-18T02:00:07;17.73;;;12.37;;
12871;SDS011;6504;53.766;9.626;2022-12-18T02:02:37;15.07;;;11.43;;
12871;SDS011;6504;53.766;9.626;2022-12-18T02:05:06;13.73;;;11.80;;
12871;SDS011;6504;53.766;9.626;2022-12-18T02:07:38;15.00;;;11.73;;
12871;SDS011;6504;53.766;9.626;2022-12-18T02:10:15;14.20;;;12.07;;
12871;SDS011;6504;53.766;9.626;2022-12-18T02:12:48;14.87;;;11.90;;
12871;SDS011;6504;53.766;9.626;2022-12-18T02:15:24;14.30;;;11.70;;
12871;SDS011;6504;53.766;9.626;2022-12-18T02:17:58;15.47;;;11.20;;
12871;SDS011;6504;53.766;9.626;2022-12-18T02:20:33;16.20;;;11.80;;
12871;SDS011;6504;53.766;9.626;2022-12-18T02:23:06;12.63;;;10.77;;
12871;SDS011;6504;53.766;9.626;2022-12-18T02:28:36;14.87;;;11.70;;
12871;SDS011;6504;53.766;9.626;2022-12-18T02:31:09;14.67;;;11.27;;
12871;SDS011;6504;53.766;9.626;2022-12-18T02:33:41;13.63;;;11.77;;
12871;SDS011;6504;53.766;9.626;2022-12-18T02:36:10;14.53;;;10.90;;
12871;SDS011;6504;53.766;9.626;2022-12-18T02:38:41;12.47;;;11.17;;
12871;SDS011;6504;53.766;9.626;2022-12-18T02:41:11;13.60;;;11.03;;
12871;SDS011;6504;53.766;9.626;2022-12-18T02:43:45;15.23;;;11.80;;
12871;SDS011;6504;53.766;9.626;2022-12-18T02:46:25;13.40;;;10.90;;
12871;SDS011;6504;53.766;9.626;2022-12-18T02:49:01;13.57;;;11.23;;
12871;SDS011;6504;53.766;9.626;2022-12-18T02:51:47;12.60;;;10.20;;
12871;SDS011;6504;53.766;9.626;2022-12-18T02:54:26;13.63;;;11.80;;
12871;SDS011;6504;53.766;9.626;2022-12-18T02:57:09;12.70;;;10.73;;
12871;SDS011;6504;53.766;9.626;2022-12-18T02:59:45;14.23;;;11.80;;
12871;SDS011;6504;53.766;9.626;2022-12-18T03:02:21;13.03;;;11.30;;
12871;SDS011;6504;53.766;9.626;2022-12-18T03:04:55;13.67;;;11.37;;
12871;SDS011;6504;53.766;9.626;2022-12-18T03:07:33;13.80;;;10.73;;
12871;SDS011;6504;53.766;9.626;2022-12-18T03:10:06;13.43;;;10.53;;
12871;SDS011;6504;53.766;9.626;2022-12-18T03:12:40;14.30;;;11.37;;
12871;SDS011;6504;53.766;9.626;2022-12-18T03:15:12;13.20;;;11.17;;
12871;SDS011;6504;53.766;9.626;2022-12-18T03:17:44;12.00;;;10.23;;
12871;SDS011;6504;53.766;9.626;2022-12-18T03:20:18;14.10;;;10.37;;
12871;SDS011;6504;53.766;9.626;2022-12-18T03:22:50;14.10;;;11.20;;
12871;SDS011;6504;53.766;9.626;2022-12-18T03:25:21;14.63;;;9.90;;
12871;SDS011;6504;53.766;9.626;2022-12-18T03:27:54;15.50;;;10.73;;
12871;SDS011;6504;53.766;9.626;2022-12-18T03:30:25;12.47;;;10.27;;
12871;SDS011;6504;53.766;9.626;2022-12-18T03:32:58;13.50;;;10.43;;
12871;SDS011;6504;53.766;9.626;2022-12-18T03:35:32;12.70;;;10.33;;
12871;SDS011;6504;53.766;9.626;2022-12-18T03:38:04;11.53;;;9.93;;
12871;SDS011;6504;53.766;9.626;2022-12-18T03:40:35;12.23;;;10.33;;
12871;SDS011;6504;53.766;9.626;2022-12-18T03:43:13;15.40;;;10.93;;
12871;SDS011;6504;53.766;9.626;2022-12-18T03:45:48;12.60;;;9.73;;
12871;SDS011;6504;53.766;9.626;2022-12-18T03:48:25;12.00;;;10.80;;
12871;SDS011;6504;53.766;9.626;2022-12-18T03:50:59;13.17;;;10.53;;
12871;SDS011;6504;53.766;9.626;2022-12-18T03:53:35;11.87;;;10.57;;
12871;SDS011;6504;53.766;9.626;2022-12-18T03:56:06;12.10;;;10.47;;
12871;SDS011;6504;53.766;9.626;2022-12-18T03:58:37;15.17;;;10.50;;
12871;SDS011;6504;53.766;9.626;2022-12-18T04:01:07;13.57;;;10.63;;
12871;SDS011;6504;53.766;9.626;2022-12-18T04:03:38;13.67;;;11.07;;
12871;SDS011;6504;53.766;9.626;2022-12-18T04:06:08;11.80;;;9.97;;
12871;SDS011;6504;53.766;9.626;2022-12-18T04:08:38;12.40;;;10.43;;
12871;SDS011;6504;53.766;9.626;2022-12-18T04:11:07;13.00;;;10.27;;
12871;SDS011;6504;53.766;9.626;2022-12-18T04:13:37;12.70;;;10.70;;
12871;SDS011;6504;53.766;9.626;2022-12-18T04:16:06;14.77;;;10.70;;
12871;SDS011;6504;53.766;9.626;2022-12-18T04:18:35;11.93;;;10.13;;
12871;SDS011;6504;53.766;9.626;2022-12-18T04:21:04;13.67;;;10.30;;
12871;SDS011;6504;53.766;9.626;2022-12-18T04:23:32;13.43;;;11.33;;
12871;SDS011;6504;53.766;9.626;2022-12-18T04:26:00;14.20;;;12.27;;
12871;SDS011;6504;53.766;9.626;2022-12-18T04:28:29;12.17;;;10.23;;
12871;SDS011;6504;53.766;9.626;2022-12-18T04:30:58;12.57;;;10.80;;
12871;SDS011;6504;53.766;9.626;2022-12-18T04:33:26;12.70;;;9.80;;
12871;SDS011;6504;53.766;9.626;2022-12-18T04:35:54;12.43;;;10.40;;
12871;SDS011;6504;53.766;9.626;2022-12-18T04:38:22;11.07;;;9.50;;
12871;SDS011;6504;53.766;9.626;2022-12-18T04:40:50;12.43;;;10.20;;
12871;SDS011;6504;53.766;9.626;2022-12-18T04:43:18;14.97;;;10.37;;
12871;SDS011;6504;53.766;9.626;2022-12-18T04:45:47;13.70;;;10.70;;
12871;SDS011;6504;53.766;9.626;2022-12-18T04:48:16;16.20;;;10.87;;
12871;SDS011;6504;53.766;9.626;2022-12-18T04:50:44;11.73;;;10.63;;
12871;SDS011;6504;53.766;9.626;2022-12-18T04:53:13;11.10;;;9.80;;
12871;SDS011;6504;53.766;9.626;2022-12-18T04:55:41;12.37;;;10.27;;
12871;SDS011;6504;53.766;9.626;2022-12-18T04:58:09;13.53;;;10.90;;
12871;SDS011;6504;53.766;9.626;2022-12-18T05:00:37;11.70;;;10.10;;
12871;SDS011;6504;53.766;9.626;2022-12-18T05:03:05;13.27;;;10.33;;
12871;SDS011;6504;53.766;9.626;2022-12-18T05:05:35;10.77;;;9.63;;
12871;SDS011;6504;53.766;9.626;2022-12-18T05:08:03;11.10;;;9.77;;
12871;SDS011;6504;53.766;9.626;2022-12-18T05:10:32;12.93;;;9.73;;
12871;SDS011;6504;53.766;9.626;2022-12-18T05:13:03;12.33;;;9.50;;
12871;SDS011;6504;53.766;9.626;2022-12-18T05:15:32;11.57;;;9.27;;
12871;SDS011;6504;53.766;9.626;2022-12-18T05:18:01;12.00;;;9.83;;
12871;SDS011;6504;53.766;9.626;2022-12-18T05:20:30;11.27;;;10.07;;
12871;SDS011;6504;53.766;9.626;2022-12-18T05:22:59;11.43;;;8.93;;
12871;SDS011;6504;53.766;9.626;2022-12-18T05:25:27;14.13;;;10.77;;
12871;SDS011;6504;53.766;9.626;2022-12-18T05:27:56;12.70;;;10.77;;
12871;SDS011;6504;53.766;9.626;2022-12-18T05:30:25;11.40;;;10.13;;
12871;SDS011;6504;53.766;9.626;2022-12-18T05:32:53;12.83;;;10.30;;
12871;SDS011;6504;53.766;9.626;2022-12-18T05:35:21;13.80;;;10.50;;
12871;SDS011;6504;53.766;9.626;2022-12-18T05:37:49;11.23;;;10.03;;
12871;SDS011;6504;53.766;9.626;2022-12-18T05:40:19;12.37;;;9.67;;
12871;SDS011;6504;53.766;9.626;2022-12-18T05:42:47;10.30;;;9.20;;
12871;SDS011;6504;53.766;9.626;2022-12-18T05:45:15;11.83;;;10.07;;
12871;SDS011;6504;53.766;9.626;2022-12-18T05:47:43;10.37;;;9.27;;
12871;SDS011;6504;53.766;9.626;2022-12-18T05:50:11;12.70;;;10.50;;
12871;SDS011;6504;53.766;9.626;2022-12-18T05:52:39;12.67;;;10.33;;
12871;SDS011;6504;53.766;9.626;2022-12-18T05:55:08;10.70;;;9.27;;
12871;SDS011;6504;53.766;9.626;2022-12-18T05:57:37;10.33;;;9.23;;
12871;SDS011;6504;53.766;9.626;2022-12-18T06:00:06;11.17;;;9.20;;
12871;SDS011;6504;53.766;9.626;2022-12-18T06:02:35;10.20;;;9.20;;
12871;SDS011;6504;53.766;9.626;2022-12-18T06:05:03;10.43;;;9.27;;
12871;SDS011;6504;53.766;9.626;2022-12-18T06:07:32;11.87;;;8.93;;
12871;SDS011;6504;53.766;9.626;2022-12-18T06:10:00;12.03;;;8.60;;
12871;SDS011;6504;53.766;9.626;2022-12-18T06:12:28;10.67;;;9.13;;
12871;SDS011;6504;53.766;9.626;2022-12-18T06:14:58;12.00;;;9.03;;
12871;SDS011;6504;53.766;9.626;2022-12-18T06:17:27;10.27;;;9.10;;
12871;SDS011;6504;53.766;9.626;2022-12-18T06:19:56;9.87;;;8.70;;
12871;SDS011;6504;53.766;9.626;2022-12-18T06:22:24;9.57;;;8.67;;
12871;SDS011;6504;53.766;9.626;2022-12-18T06:24:53;12.53;;;10.10;;
12871;SDS011;6504;53.766;9.626;2022-12-18T06:27:21;10.60;;;8.20;;
12871;SDS011;6504;53.766;9.626;2022-12-18T06:29:49;11.10;;;8.97;;
12871;SDS011;6504;53.766;9.626;2022-12-18T06:32:18;10.67;;;8.40;;
12871;SDS011;6504;53.766;9.626;2022-12-18T06:34:46;9.60;;;8.00;;
12871;SDS011;6504;53.766;9.626;2022-12-18T06:37:14;12.37;;;9.37;;
12871;SDS011;6504;53.766;9.626;2022-12-18T06:39:42;9.93;;;8.57;;
12871;SDS011;6504;53.766;9.626;2022-12-18T06:42:10;9.80;;;8.70;;
12871;SDS011;6504;53.766;9.626;2022-12-18T06:44:38;11.70;;;8.57;;
12871;SDS011;6504;53.766;9.626;2022-12-18T06:47:06;10.07;;;8.90;;
12871;SDS011;6504;53.766;9.626;2022-12-18T06:49:36;9.57;;;8.50;;
12871;SDS011;6504;53.766;9.626;2022-12-18T06:52:04;11.10;;;8.90;;
12871;SDS011;6504;53.766;9.626;2022-12-18T06:54:32;10.93;;;8.70;;
12871;SDS011;6504;53.766;9.626;2022-12-18T06:57:00;10.90;;;7.87;;
12871;SDS011;6504;53.766;9.626;2022-12-18T06:59:28;10.10;;;8.50;;
12871;SDS011;6504;53.766;9.626;2022-12-18T07:01:56;9.90;;;8.87;;
12871;SDS011;6504;53.766;9.626;2022-12-18T07:04:27;10.23;;;8.40;;
12871;SDS011;6504;53.766;9.626;2022-12-18T07:06:57;9.83;;;8.83;;
12871;SDS011;6504;53.766;9.626;2022-12-18T07:09:25;10.33;;;9.07;;
12871;SDS011;6504;53.766;9.626;2022-12-18T07:11:56;9.17;;;8.13;;
12871;SDS011;6504;53.766;9.626;2022-12-18T07:14:24;10.70;;;8.60;;
12871;SDS011;6504;53.766;9.626;2022-12-18T07:16:53;9.37;;;7.80;;
12871;SDS011;6504;53.766;9.626;2022-12-18T07:19:21;10.67;;;7.63;;
12871;SDS011;6504;53.766;9.626;2022-12-18T07:21:49;10.87;;;8.40;;
12871;SDS011;6504;53.766;9.626;2022-12-18T07:24:19;9.57;;;7.93;;
12871;SDS011;6504;53.766;9.626;2022-12-18T07:26:47;9.80;;;8.10;;
12871;SDS011;6504;53.766;9.626;2022-12-18T07:29:15;10.03;;;8.57;;
12871;SDS011;6504;53.766;9.626;2022-12-18T07:31:43;10.23;;;9.03;;
12871;SDS011;6504;53.766;9.626;2022-12-18T07:34:12;10.20;;;8.67;;
12871;SDS011;6504;53.766;9.626;2022-12-18T07:36:41;9.90;;;8.07;;
12871;SDS011;6504;53.766;9.626;2022-12-18T07:39:10;10.43;;;8.70;;
12871;SDS011;6504;53.766;9.626;2022-12-18T07:41:39;9.13;;;8.13;;
12871;SDS011;6504;53.766;9.626;2022-12-18T07:44:13;12.17;;;8.43;;
12871;SDS011;6504;53.766;9.626;2022-12-18T07:46:41;9.80;;;8.73;;
12871;SDS011;6504;53.766;9.626;2022-12-18T07:49:09;11.80;;;8.90;;
12871;SDS011;6504;53.766;9.626;2022-12-18T07:51:37;10.03;;;8.57;;
12871;SDS011;6504;53.766;9.626;2022-12-18T07:54:06;11.40;;;8.70;;
12871;SDS011;6504;53.766;9.626;2022-12-18T07:56:34;9.70;;;8.80;;
12871;SDS011;6504;53.766;9.626;2022-12-18T07:59:03;9.17;;;8.27;;
12871;SDS011;6504;53.766;9.626;2022-12-18T08:01:31;10.70;;;9.07;;
12871;SDS011;6504;53.766;9.626;2022-12-18T08:04:01;10.60;;;9.10;;
12871;SDS011;6504;53.766;9.626;2022-12-18T08:06:29;10.87;;;8.67;;
12871;SDS011;6504;53.766;9.626;2022-12-18T08:08:57;8.90;;;8.00;;
12871;SDS011;6504;53.766;9.626;2022-12-18T08:11:26;11.10;;;9.37;;
12871;SDS011;6504;53.766;9.626;2022-12-18T08:13:55;11.17;;;8.57;;
12871;SDS011;6504;53.766;9.626;2022-12-18T08:16:25;10.80;;;8.70;;
12871;SDS011;6504;53.766;9.626;2022-12-18T08:18:54;12.30;;;9.27;;
12871;SDS011;6504;53.766;9.626;2022-12-18T08:21:23;11.43;;;8.87;;
12871;SDS011;6504;53.766;9.626;2022-12-18T08:23:53;10.27;;;8.87;;
12871;SDS011;6504;53.766;9.626;2022-12-18T08:26:22;11.47;;;9.27;;
12871;SDS011;6504;53.766;9.626;2022-12-18T08:28:52;12.37;;;9.77;;
12871;SDS011;6504;53.766;9.626;2022-12-18T08:31:22;13.43;;;11.10;;
12871;SDS011;6504;53.766;9.626;2022-12-18T08:33:52;18.67;;;13.63;;
12871;SDS011;6504;53.766;9.626;2022-12-18T08:36:22;13.63;;;11.20;;
12871;SDS011;6504;53.766;9.626;2022-12-18T08:38:52;13.10;;;10.33;;
12871;SDS011;6504;53.766;9.626;2022-12-18T08:41:21;14.43;;;12.33;;
12871;SDS011;6504;53.766;9.626;2022-12-18T08:43:49;14.97;;;10.97;;
12871;SDS011;6504;53.766;9.626;2022-12-18T08:46:36;21.27;;;14.57;;
12871;SDS011;6504;53.766;9.626;2022-12-18T08:49:06;21.73;;;16.70;;
12871;SDS011;6504;53.766;9.626;2022-12-18T08:51:36;20.03;;;16.43;;
12871;SDS011;6504;53.766;9.626;2022-12-18T08:54:05;19.30;;;17.20;;
12871;SDS011;6504;53.766;9.626;2022-12-18T08:56:33;15.87;;;14.17;;
12871;SDS011;6504;53.766;9.626;2022-12-18T08:59:02;13.47;;;12.07;;
12871;SDS011;6504;53.766;9.626;2022-12-18T09:01:30;12.07;;;10.77;;
12871;SDS011;6504;53.766;9.626;2022-12-18T09:03:59;12.67;;;9.60;;
12871;SDS011;6504;53.766;9.626;2022-12-18T09:06:30;11.67;;;9.70;;
12871;SDS011;6504;53.766;9.626;2022-12-18T09:08:58;11.57;;;9.77;;
12871;SDS011;6504;53.766;9.626;2022-12-18T09:11:27;10.60;;;9.23;;
12871;SDS011;6504;53.766;9.626;2022-12-18T09:14:01;12.10;;;9.20;;
12871;SDS011;6504;53.766;9.626;2022-12-18T09:16:32;12.40;;;9.93;;
12871;SDS011;6504;53.766;9.626;2022-12-18T09:19:06;12.07;;;10.00;;
12871;SDS011;6504;53.766;9.626;2022-12-18T09:21:36;13.33;;;10.60;;
12871;SDS011;6504;53.766;9.626;2022-12-18T09:24:11;12.93;;;10.40;;
12871;SDS011;6504;53.766;9.626;2022-12-18T09:26:41;13.50;;;11.07;;
12871;SDS011;6504;53.766;9.626;2022-12-18T09:29:13;14.00;;;10.60;;
12871;SDS011;6504;53.766;9.626;2022-12-18T09:31:42;12.73;;;10.50;;
12871;SDS011;6504;53.766;9.626;2022-12-18T09:34:10;13.87;;;10.63;;
12871;SDS011;6504;53.766;9.626;2022-12-18T09:36:40;13.73;;;10.30;;
12871;SDS011;6504;53.766;9.626;2022-12-18T09:39:08;11.63;;;10.43;;
12871;SDS011;6504;53.766;9.626;2022-12-18T09:41:44;13.83;;;10.90;;
12871;SDS011;6504;53.766;9.626;2022-12-18T09:44:16;12.33;;;10.87;;
12871;SDS011;6504;53.766;9.626;2022-12-18T09:46:50;14.07;;;10.83;;
12871;SDS011;6504;53.766;9.626;2022-12-18T09:49:25;11.67;;;10.50;;
12871;SDS011;6504;53.766;9.626;2022-12-18T09:51:59;13.87;;;11.07;;
12871;SDS011;6504;53.766;9.626;2022-12-18T09:54:32;12.00;;;10.80;;
12871;SDS011;6504;53.766;9.626;2022-12-18T09:57:04;15.70;;;12.07;;
12871;SDS011;6504;53.766;9.626;2022-12-18T09:59:34;13.23;;;11.20;;
12871;SDS011;6504;53.766;9.626;2022-12-18T10:02:13;14.03;;;11.53;;
12871;SDS011;6504;53.766;9.626;2022-12-18T10:04:43;13.57;;;11.80;;
12871;SDS011;6504;53.766;9.626;2022-12-18T10:07:19;14.83;;;11.50;;
12871;SDS011;6504;53.766;9.626;2022-12-18T10:09:55;13.20;;;10.83;;
12871;SDS011;6504;53.766;9.626;2022-12-18T10:12:30;13.87;;;11.70;;
12871;SDS011;6504;53.766;9.626;2022-12-18T10:15:06;13.80;;;11.07;;
12871;SDS011;6504;53.766;9.626;2022-12-18T10:17:42;15.17;;;11.00;;
12871;SDS011;6504;53.766;9.626;2022-12-18T10:20:21;14.83;;;11.47;;
12871;SDS011;6504;53.766;9.626;2022-12-18T10:22:57;13.73;;;11.50;;
12871;SDS011;6504;53.766;9.626;2022-12-18T10:25:31;15.30;;;11.80;;
12871;SDS011;6504;53.766;9.626;2022-12-18T10:28:07;14.67;;;11.83;;
12871;SDS011;6504;53.766;9.626;2022-12-18T10:30:38;13.83;;;11.40;;
12871;SDS011;6504;53.766;9.626;2022-12-18T10:33:08;13.90;;;11.67;;
12871;SDS011;6504;53.766;9.626;2022-12-18T10:35:39;14.03;;;11.57;;
12871;SDS011;6504;53.766;9.626;2022-12-18T10:38:21;12.27;;;10.27;;
12871;SDS011;6504;53.766;9.626;2022-12-18T10:40:52;12.47;;;10.70;;
12871;SDS011;6504;53.766;9.626;2022-12-18T10:43:23;14.60;;;10.33;;
12871;SDS011;6504;53.766;9.626;2022-12-18T10:46:04;13.30;;;10.33;;
12871;SDS011;6504;53.766;9.626;2022-12-18T10:48:47;12.13;;;10.20;;
12871;SDS011;6504;53.766;9.626;2022-12-18T10:51:19;11.87;;;9.07;;
12871;SDS011;6504;53.766;9.626;2022-12-18T10:53:56;14.63;;;11.10;;
12871;SDS011;6504;53.766;9.626;2022-12-18T10:56:28;12.13;;;10.90;;
12871;SDS011;6504;53.766;9.626;2022-12-18T10:58:59;13.70;;;10.77;;
12871;SDS011;6504;53.766;9.626;2022-12-18T11:01:31;12.87;;;10.70;;
12871;SDS011;6504;53.766;9.626;2022-12-18T11:04:16;12.87;;;10.70;;
12871;SDS011;6504;53.766;9.626;2022-12-18T11:06:53;14.73;;;10.63;;
12871;SDS011;6504;53.766;9.626;2022-12-18T11:09:26;13.57;;;9.87;;
12871;SDS011;6504;53.766;9.626;2022-12-18T11:11:59;12.57;;;10.20;;
12871;SDS011;6504;53.766;9.626;2022-12-18T11:14:30;10.97;;;9.60;;
12871;SDS011;6504;53.766;9.626;2022-12-18T11:17:00;12.67;;;10.60;;
12871;SDS011;6504;53.766;9.626;2022-12-18T11:19:52;10.37;;;8.10;;
12871;SDS011;6504;53.766;9.626;2022-12-18T11:22:23;10.57;;;8.70;;
12871;SDS011;6504;53.766;9.626;2022-12-18T11:24:56;9.50;;;8.50;;
12871;SDS011;6504;53.766;9.626;2022-12-18T11:27:48;10.87;;;8.23;;
12871;SDS011;6504;53.766;9.626;2022-12-18T11:30:22;10.10;;;8.30;;
12871;SDS011;6504;53.766;9.626;2022-12-18T11:32:54;11.13;;;8.20;;
12871;SDS011;6504;53.766;9.626;2022-12-18T11:35:37;10.43;;;8.60;;
12871;SDS011;6504;53.766;9.626;2022-12-18T11:38:12;10.20;;;8.10;;
12871;SDS011;6504;53.766;9.626;2022-12-18T11:40:50;9.67;;;7.73;;
12871;SDS011;6504;53.766;9.626;2022-12-18T11:43:25;9.03;;;7.87;;
12871;SDS011;6504;53.766;9.626;2022-12-18T11:45:58;8.60;;;7.50;;
12871;SDS011;6504;53.766;9.626;2022-12-18T11:48:30;10.27;;;8.23;;
12871;SDS011;6504;53.766;9.626;2022-12-18T11:51:09;9.73;;;8.17;;
12871;SDS011;6504;53.766;9.626;2022-12-18T11:53:42;9.03;;;7.90;;
12871;SDS011;6504;53.766;9.626;2022-12-18T11:56:21;10.90;;;8.00;;
12871;SDS011;6504;53.766;9.626;2022-12-18T11:59:00;8.50;;;7.60;;
12871;SDS011;6504;53.766;9.626;2022-12-18T12:01:42;9.40;;;7.50;;
12871;SDS011;6504;53.766;9.626;2022-12-18T12:04:26;9.97;;;7.93;;
12871;SDS011;6504;53.766;9.626;2022-12-18T12:07:11;8.80;;;7.63;;
12871;SDS011;6504;53.766;9.626;2022-12-18T12:09:50;8.40;;;7.50;;
12871;SDS011;6504;53.766;9.626;2022-12-18T12:12:32;8.80;;;7.73;;
12871;SDS011;6504;53.766;9.626;2022-12-18T12:15:17;8.90;;;7.50;;
12871;SDS011;6504;53.766;9.626;2022-12-18T12:17:57;9.50;;;8.03;;
12871;SDS011;6504;53.766;9.626;2022-12-18T12:20:40;10.03;;;7.90;;
12871;SDS011;6504;53.766;9.626;2022-12-18T12:23:16;8.70;;;7.80;;
12871;SDS011;6504;53.766;9.626;2022-12-18T12:25:55;8.90;;;7.60;;
12871;SDS011;6504;53.766;9.626;2022-12-18T12:28:35;9.37;;;7.97;;
12871;SDS011;6504;53.766;9.626;2022-12-18T12:31:21;11.33;;;8.97;;
12871;SDS011;6504;53.766;9.626;2022-12-18T12:33:56;10.30;;;9.17;;
12871;SDS011;6504;53.766;9.626;2022-12-18T12:36:34;13.17;;;9.80;;
12871;SDS011;6504;53.766;9.626;2022-12-18T12:39:10;10.37;;;9.07;;
12871;SDS011;6504;53.766;9.626;2022-12-18T12:41:41;11.37;;;8.90;;
12871;SDS011;6504;53.766;9.626;2022-12-18T12:44:31;12.10;;;9.10;;
12871;SDS011;6504;53.766;9.626;2022-12-18T12:47:06;11.00;;;9.07;;
12871;SDS011;6504;53.766;9.626;2022-12-18T12:49:42;11.17;;;8.53;;
12871;SDS011;6504;53.766;9.626;2022-12-18T12:52:17;10.60;;;9.50;;
12871;SDS011;6504;53.766;9.626;2022-12-18T12:54:51;11.00;;;9.83;;
12871;SDS011;6504;53.766;9.626;2022-12-18T12:57:20;12.00;;;9.47;;
12871;SDS011;6504;53.766;9.626;2022-12-18T12:59:56;10.53;;;9.40;;
12871;SDS011;6504;53.766;9.626;2022-12-18T13:02:30;13.27;;;10.27;;
12871;SDS011;6504;53.766;9.626;2022-12-18T13:05:04;11.73;;;9.53;;
12871;SDS011;6504;53.766;9.626;2022-12-18T13:07:45;10.77;;;9.67;;
12871;SDS011;6504;53.766;9.626;2022-12-18T13:10:25;13.83;;;10.13;;
12871;SDS011;6504;53.766;9.626;2022-12-18T13:12:59;12.73;;;10.73;;
12871;SDS011;6504;53.766;9.626;2022-12-18T13:15:38;10.87;;;8.97;;
12871;SDS011;6504;53.766;9.626;2022-12-18T13:18:18;12.33;;;10.40;;
12871;SDS011;6504;53.766;9.626;2022-12-18T13:20:49;10.97;;;9.43;;
12871;SDS011;6504;53.766;9.626;2022-12-18T13:23:33;12.00;;;10.43;;
12871;SDS011;6504;53.766;9.626;2022-12-18T13:28:58;13.47;;;10.00;;
12871;SDS011;6504;53.766;9.626;2022-12-18T13:34:27;12.37;;;10.77;;
12871;SDS011;6504;53.766;9.626;2022-12-18T13:40:00;14.13;;;10.80;;
12871;SDS011;6504;53.766;9.626;2022-12-18T13:42:37;13.13;;;10.57;;
12871;SDS011;6504;53.766;9.626;2022-12-18T13:48:29;12.67;;;10.30;;
12871;SDS011;6504;53.766;9.626;2022-12-18T13:51:00;13.57;;;10.57;;
12871;SDS011;6504;53.766;9.626;2022-12-18T13:53:33;13.97;;;10.50;;
12871;SDS011;6504;53.766;9.626;2022-12-18T13:56:06;11.93;;;10.60;;
12871;SDS011;6504;53.766;9.626;2022-12-18T13:58:35;13.27;;;10.43;;
12871;SDS011;6504;53.766;9.626;2022-12-18T14:01:04;13.47;;;10.97;;
12871;SDS011;6504;53.766;9.626;2022-12-18T14:03:34;12.40;;;10.90;;
12871;SDS011;6504;53.766;9.626;2022-12-18T14:06:03;13.93;;;10.40;;
12871;SDS011;6504;53.766;9.626;2022-12-18T14:08:37;14.10;;;11.47;;
12871;SDS011;6504;53.766;9.626;2022-12-18T14:11:16;12.50;;;10.63;;
12871;SDS011;6504;53.766;9.626;2022-12-18T14:13:48;14.70;;;11.23;;
12871;SDS011;6504;53.766;9.626;2022-12-18T14:16:17;14.57;;;11.03;;
12871;SDS011;6504;53.766;9.626;2022-12-18T14:18:48;12.97;;;11.57;;
12871;SDS011;6504;53.766;9.626;2022-12-18T14:21:23;13.30;;;11.53;;
12871;SDS011;6504;53.766;9.626;2022-12-18T14:24:03;13.47;;;11.23;;
12871;SDS011;6504;53.766;9.626;2022-12-18T14:26:43;12.97;;;10.67;;
12871;SDS011;6504;53.766;9.626;2022-12-18T14:29:22;16.47;;;11.80;;
12871;SDS011;6504;53.766;9.626;2022-12-18T14:32:05;12.37;;;10.80;;
12871;SDS011;6504;53.766;9.626;2022-12-18T14:34:43;13.73;;;10.63;;
12871;SDS011;6504;53.766;9.626;2022-12-18T14:37:13;14.30;;;10.77;;
12871;SDS011;6504;53.766;9.626;2022-12-18T14:39:51;16.97;;;11.50;;
12871;SDS011;6504;53.766;9.626;2022-12-18T14:42:21;13.13;;;11.20;;
12871;SDS011;6504;53.766;9.626;2022-12-18T14:44:49;14.07;;;10.90;;
12871;SDS011;6504;53.766;9.626;2022-12-18T14:47:37;15.00;;;11.10;;
12871;SDS011;6504;53.766;9.626;2022-12-18T14:50:12;15.37;;;12.03;;
12871;SDS011;6504;53.766;9.626;2022-12-18T14:52:41;16.50;;;12.27;;
12871;SDS011;6504;53.766;9.626;2022-12-18T14:55:14;16.03;;;12.73;;
12871;SDS011;6504;53.766;9.626;2022-12-18T14:57:43;20.87;;;13.77;;
12871;SDS011;6504;53.766;9.626;2022-12-18T15:00:15;17.93;;;13.63;;
12871;SDS011;6504;53.766;9.626;2022-12-18T15:02:45;19.90;;;13.80;;
12871;SDS011;6504;53.766;9.626;2022-12-18T15:05:18;19.83;;;13.60;;
12871;SDS011;6504;53.766;9.626;2022-12-18T15:07:48;20.43;;;14.27;;
12871;SDS011;6504;53.766;9.626;2022-12-18T15:10:19;20.50;;;14.07;;
12871;SDS011;6504;53.766;9.626;2022-12-18T15:12:48;20.57;;;15.23;;
12871;SDS011;6504;53.766;9.626;2022-12-18T15:18:17;18.67;;;14.10;;
12871;SDS011;6504;53.766;9.626;2022-12-18T15:20:49;20.70;;;14.30;;
12871;SDS011;6504;53.766;9.626;2022-12-18T15:23:20;21.77;;;15.83;;
12871;SDS011;6504;53.766;9.626;2022-12-18T15:25:54;23.27;;;16.27;;